createdAt,value
2019-03-26T00:01:11.504Z,8.00
2019-03-26T00:03:39.995Z,8.00
2019-03-26T00:06:08.447Z,8.00
2019-03-26T00:08:36.917Z,7.90
2019-03-26T00:11:05.517Z,7.90
2019-03-26T00:13:33.977Z,7.90
2019-03-26T00:16:02.490Z,8.00
2019-03-26T00:18:30.984Z,7.90
2019-03-26T00:20:59.436Z,7.90
2019-03-26T00:23:27.891Z,7.90
2019-03-26T00:25:56.430Z,7.90
2019-03-26T00:28:24.887Z,7.90
2019-03-26T00:30:53.400Z,7.90
2019-03-26T00:33:21.984Z,8.00
2019-03-26T00:35:52.005Z,7.90
2019-03-26T00:38:20.480Z,7.90
2019-03-26T00:40:49.008Z,7.90
2019-03-26T00:43:17.596Z,7.90
2019-03-26T00:45:46.239Z,7.90
2019-03-26T00:48:14.801Z,7.90
2019-03-26T00:50:43.251Z,7.90
2019-03-26T00:53:11.751Z,7.80
2019-03-26T00:55:40.239Z,7.90
2019-03-26T00:58:10.097Z,7.90
2019-03-26T01:00:41.353Z,7.90
2019-03-26T01:03:09.951Z,7.90
2019-03-26T01:05:38.620Z,8.00
2019-03-26T01:08:08.664Z,7.90
2019-03-26T01:10:37.135Z,8.00
2019-03-26T01:13:05.822Z,7.90
2019-03-26T01:15:34.476Z,8.00
2019-03-26T01:18:02.950Z,7.90
2019-03-26T01:20:31.429Z,7.90
2019-03-26T01:22:59.922Z,7.90
2019-03-26T01:25:28.447Z,7.90
2019-03-26T01:27:56.996Z,7.90
2019-03-26T01:30:25.476Z,7.90
2019-03-26T01:32:53.936Z,7.90
2019-03-26T01:35:22.408Z,7.90
2019-03-26T01:37:50.909Z,7.90
2019-03-26T01:40:19.441Z,7.90
2019-03-26T01:42:48.344Z,7.80
2019-03-26T01:45:16.834Z,7.80
2019-03-26T01:47:45.280Z,7.90
2019-03-26T01:50:14.308Z,7.90
2019-03-26T01:52:42.761Z,7.90
2019-03-26T01:55:12.843Z,7.80
2019-03-26T01:57:41.321Z,7.80
2019-03-26T02:00:10.249Z,7.80
2019-03-26T02:02:38.700Z,7.80
2019-03-26T02:05:07.420Z,7.80
2019-03-26T02:07:38.820Z,7.80
2019-03-26T02:10:06.183Z,7.80
2019-03-26T02:12:34.773Z,7.80
2019-03-26T02:15:03.864Z,7.80
2019-03-26T02:17:32.385Z,7.70
2019-03-26T02:20:00.939Z,7.70
2019-03-26T02:22:29.392Z,7.80
2019-03-26T02:24:57.850Z,7.80
2019-03-26T02:27:26.403Z,7.70
2019-03-26T02:29:54.932Z,7.80
2019-03-26T02:32:23.417Z,7.80
2019-03-26T02:34:51.894Z,7.80
2019-03-26T02:37:20.352Z,7.70
2019-03-26T02:39:48.805Z,7.70
2019-03-26T02:42:17.358Z,7.70
2019-03-26T02:44:45.813Z,7.70
2019-03-26T02:47:14.527Z,7.60
2019-03-26T02:49:42.988Z,7.70
2019-03-26T02:52:11.443Z,7.70
2019-03-26T02:54:40.017Z,7.70
2019-03-26T02:57:08.472Z,7.70
2019-03-26T02:59:36.965Z,7.70
2019-03-26T03:02:05.721Z,7.60
2019-03-26T03:04:34.305Z,7.60
2019-03-26T03:07:02.824Z,7.60
2019-03-26T03:09:31.558Z,7.60
2019-03-26T03:12:00.117Z,7.50
2019-03-26T03:14:28.632Z,7.60
2019-03-26T03:16:57.109Z,7.70
2019-03-26T03:19:25.570Z,7.60
2019-03-26T03:21:54.117Z,7.60
2019-03-26T03:24:22.663Z,7.60
2019-03-26T03:26:51.221Z,7.60
2019-03-26T03:29:19.768Z,7.50
2019-03-26T03:31:48.333Z,7.60
2019-03-26T03:34:16.850Z,7.60
2019-03-26T03:36:46.892Z,7.50
2019-03-26T03:39:15.421Z,7.50
2019-03-26T03:41:43.941Z,7.60
2019-03-26T03:44:12.469Z,7.60
2019-03-26T03:46:42.872Z,7.70
2019-03-26T03:49:12.394Z,7.70
2019-03-26T03:51:43.025Z,7.70
2019-03-26T03:54:12.777Z,7.70
2019-03-26T03:56:41.897Z,7.60
2019-03-26T03:59:12.157Z,7.60
2019-03-26T04:01:40.764Z,7.60
2019-03-26T04:04:09.320Z,7.60
2019-03-26T04:06:37.885Z,7.50
2019-03-26T04:09:06.476Z,7.50
2019-03-26T04:11:35.017Z,7.50
2019-03-26T04:14:03.562Z,7.50
2019-03-26T04:16:32.088Z,7.40
2019-03-26T04:19:00.568Z,7.40
2019-03-26T04:21:29.183Z,7.40
2019-03-26T04:23:57.718Z,7.40
2019-03-26T04:26:26.236Z,7.30
2019-03-26T04:28:54.730Z,7.30
2019-03-26T04:31:23.256Z,7.20
2019-03-26T04:33:51.708Z,7.10
2019-03-26T04:36:26.029Z,7.10
2019-03-26T04:38:50.440Z,7.00
2019-03-26T04:41:19.000Z,7.00
2019-03-26T04:43:47.491Z,7.00
2019-03-26T04:46:16.017Z,7.00
2019-03-26T04:48:44.475Z,6.90
2019-03-26T04:51:13.007Z,6.90
2019-03-26T04:53:41.467Z,6.80
2019-03-26T04:56:09.924Z,6.80
2019-03-26T04:58:38.401Z,6.70
2019-03-26T05:01:06.874Z,6.60
2019-03-26T05:03:35.426Z,6.60
2019-03-26T05:06:03.881Z,6.50
2019-03-26T05:08:32.336Z,6.50
2019-03-26T05:11:00.890Z,6.50
2019-03-26T05:13:29.343Z,6.40
2019-03-26T05:15:57.833Z,6.30
2019-03-26T05:18:26.318Z,6.30
2019-03-26T05:20:54.767Z,6.30
2019-03-26T05:23:23.296Z,6.20
2019-03-26T05:25:52.559Z,6.10
2019-03-26T05:28:21.012Z,6.10
2019-03-26T05:30:49.497Z,5.90
2019-03-26T05:33:18.113Z,5.90
2019-03-26T05:35:46.711Z,5.80
2019-03-26T05:38:15.164Z,5.80
2019-03-26T05:40:43.679Z,5.80
2019-03-26T05:43:12.143Z,5.70
2019-03-26T05:45:40.604Z,5.70
2019-03-26T05:48:09.126Z,5.70
2019-03-26T05:50:37.656Z,5.80
2019-03-26T05:53:06.180Z,6.00
2019-03-26T05:55:34.647Z,6.00
2019-03-26T05:58:03.128Z,6.00
2019-03-26T06:00:31.724Z,6.00
2019-03-26T06:03:00.175Z,6.10
2019-03-26T06:05:28.679Z,6.20
2019-03-26T06:07:57.145Z,6.20
2019-03-26T06:10:25.736Z,6.30
2019-03-26T06:12:54.219Z,6.40
2019-03-26T06:15:22.752Z,6.50
2019-03-26T06:17:51.313Z,6.60
2019-03-26T06:20:19.880Z,6.70
2019-03-26T06:22:48.437Z,6.70
2019-03-26T06:25:16.905Z,6.80
2019-03-26T06:27:45.529Z,6.90
2019-03-26T06:30:14.585Z,6.90
2019-03-26T06:32:43.040Z,6.90
2019-03-26T06:35:11.872Z,6.90
2019-03-26T06:37:40.398Z,6.90
2019-03-26T06:40:11.004Z,6.90
2019-03-26T06:42:39.486Z,6.90
2019-03-26T06:45:09.963Z,6.90
2019-03-26T06:47:38.563Z,6.90
2019-03-26T06:50:10.052Z,7.00
2019-03-26T06:52:38.505Z,7.00
2019-03-26T06:55:08.896Z,7.00
2019-03-26T06:57:37.696Z,7.00
2019-03-26T07:00:11.475Z,7.10
2019-03-26T07:02:40.088Z,7.10
2019-03-26T07:05:09.699Z,7.10
2019-03-26T07:07:38.393Z,7.10
2019-03-26T07:10:08.640Z,7.20
2019-03-26T07:12:37.253Z,7.20
2019-03-26T07:15:07.560Z,7.20
2019-03-26T07:17:36.106Z,7.20
2019-03-26T07:20:07.480Z,7.20
2019-03-26T07:22:37.701Z,7.30
2019-03-26T07:25:09.490Z,7.20
2019-03-26T07:27:38.209Z,7.30
2019-03-26T07:30:08.618Z,7.30
2019-03-26T07:32:37.265Z,7.30
2019-03-26T07:35:07.544Z,7.30
2019-03-26T07:37:45.080Z,7.30
2019-03-26T07:40:09.016Z,7.30
2019-03-26T07:42:37.824Z,7.40
2019-03-26T07:45:08.123Z,7.60
2019-03-26T07:47:36.684Z,7.70
2019-03-26T07:50:07.693Z,7.90
2019-03-26T07:52:36.252Z,8.10
2019-03-26T07:55:07.069Z,8.20
2019-03-26T07:57:35.735Z,8.30
2019-03-26T08:00:07.719Z,8.30
2019-03-26T08:02:36.265Z,8.30
2019-03-26T08:05:10.163Z,8.40
2019-03-26T08:07:38.624Z,8.50
2019-03-26T08:10:08.219Z,8.60
2019-03-26T08:12:36.781Z,9.30
2019-03-26T08:15:07.496Z,9.60
2019-03-26T08:17:36.041Z,9.60
2019-03-26T08:20:07.300Z,9.60
2019-03-26T08:22:35.828Z,9.50
2019-03-26T08:25:06.855Z,9.40
2019-03-26T08:27:35.463Z,9.30
2019-03-26T08:30:05.352Z,9.20
2019-03-26T08:32:36.848Z,9.00
2019-03-26T08:35:04.974Z,8.90
2019-03-26T08:37:33.577Z,8.80
2019-03-26T08:40:02.038Z,8.80
2019-03-26T08:42:30.528Z,8.60
2019-03-26T08:44:59.045Z,8.60
2019-03-26T08:47:27.521Z,8.70
2019-03-26T08:49:55.991Z,8.80
2019-03-26T08:52:24.447Z,8.80
2019-03-26T08:54:52.905Z,8.90
2019-03-26T08:57:21.413Z,8.90
2019-03-26T08:59:49.865Z,9.00
2019-03-26T09:02:18.340Z,9.20
2019-03-26T09:04:46.856Z,9.40
2019-03-26T09:07:15.325Z,9.60
2019-03-26T09:09:43.788Z,9.70
2019-03-26T09:12:12.287Z,9.60
2019-03-26T09:14:40.778Z,9.40
2019-03-26T09:17:09.392Z,9.30
2019-03-26T09:19:37.911Z,9.20
2019-03-26T09:22:06.377Z,9.20
2019-03-26T09:24:34.827Z,9.10
2019-03-26T09:27:03.374Z,9.20
2019-03-26T09:29:31.825Z,9.40
2019-03-26T09:32:00.373Z,9.40
2019-03-26T09:34:28.858Z,9.40
2019-03-26T09:36:58.865Z,9.60
2019-03-26T09:39:27.385Z,9.70
2019-03-26T09:41:55.944Z,9.70
2019-03-26T09:44:24.413Z,9.60
2019-03-26T09:46:52.874Z,9.60
2019-03-26T09:49:21.377Z,9.70
2019-03-26T09:51:50.368Z,9.90
2019-03-26T09:54:18.861Z,10.00
2019-03-26T09:56:47.388Z,10.00
2019-03-26T09:59:15.836Z,9.90
2019-03-26T10:01:44.306Z,10.00
2019-03-26T10:04:12.858Z,10.10
2019-03-26T10:06:41.355Z,10.20
2019-03-26T10:09:09.871Z,10.20
2019-03-26T10:11:38.353Z,10.00
2019-03-26T10:14:06.834Z,9.90
2019-03-26T10:16:35.316Z,9.90
2019-03-26T10:19:03.767Z,9.80
2019-03-26T10:21:32.252Z,9.80
2019-03-26T10:24:00.927Z,10.00
2019-03-26T10:26:29.376Z,10.10
2019-03-26T10:28:57.868Z,10.50
2019-03-26T10:31:26.420Z,10.60
2019-03-26T10:33:54.884Z,10.70
2019-03-26T10:36:23.643Z,10.60
2019-03-26T10:39:05.071Z,10.40
2019-03-26T10:41:22.787Z,10.50
2019-03-26T10:43:51.571Z,10.40
2019-03-26T10:46:20.101Z,10.40
2019-03-26T10:48:48.566Z,10.40
2019-03-26T10:51:17.040Z,10.30
2019-03-26T10:53:45.507Z,10.30
2019-03-26T10:56:13.971Z,10.20
2019-03-26T10:58:42.468Z,10.20
2019-03-26T11:01:11.006Z,10.20
2019-03-26T11:03:39.464Z,10.20
2019-03-26T11:06:07.956Z,10.20
2019-03-26T11:08:36.419Z,10.30
2019-03-26T11:11:04.931Z,10.40
2019-03-26T11:13:33.430Z,10.60
2019-03-26T11:16:01.881Z,10.60
2019-03-26T11:18:30.332Z,10.60
2019-03-26T11:21:03.184Z,10.60
2019-03-26T11:23:28.993Z,10.60
2019-03-26T11:25:57.515Z,10.80
2019-03-26T11:28:26.137Z,10.80
2019-03-26T11:30:54.591Z,10.90
2019-03-26T11:33:23.060Z,10.90
2019-03-26T11:35:51.675Z,10.80
2019-03-26T11:38:20.207Z,10.60
2019-03-26T11:41:08.024Z,10.60
2019-03-26T11:43:36.511Z,10.50
2019-03-26T11:46:05.047Z,10.50
2019-03-26T11:48:33.631Z,10.40
2019-03-26T11:51:02.093Z,10.20
2019-03-26T11:53:30.626Z,10.20
2019-03-26T11:55:59.352Z,10.30
2019-03-26T11:58:30.855Z,10.30
2019-03-26T12:00:58.156Z,10.30
2019-03-26T12:03:26.699Z,10.30
2019-03-26T12:05:55.177Z,10.30
2019-03-26T12:08:23.644Z,10.30
2019-03-26T12:10:52.196Z,10.30
2019-03-26T12:13:20.676Z,10.30
2019-03-26T12:15:49.208Z,10.30
2019-03-26T12:18:17.679Z,10.40
2019-03-26T12:20:46.221Z,10.50
2019-03-26T12:23:14.676Z,10.50
2019-03-26T12:25:43.131Z,10.60
2019-03-26T12:28:11.716Z,10.70
2019-03-26T12:30:40.243Z,10.50
2019-03-26T12:33:09.127Z,10.50
2019-03-26T12:35:37.761Z,10.40
2019-03-26T12:38:09.292Z,10.30
2019-03-26T12:40:37.751Z,10.10
2019-03-26T12:43:18.200Z,10.00
2019-03-26T12:45:46.817Z,10.10
2019-03-26T12:48:15.611Z,10.20
2019-03-26T12:50:44.195Z,10.20
2019-03-26T12:53:12.973Z,10.20
2019-03-26T12:55:42.290Z,10.30
2019-03-26T12:58:10.857Z,10.30
2019-03-26T13:00:44.541Z,10.30
2019-03-26T13:03:13.093Z,10.40
2019-03-26T13:05:41.641Z,10.50
2019-03-26T13:08:10.112Z,10.60
2019-03-26T13:10:38.572Z,10.50
2019-03-26T13:13:07.187Z,10.50
2019-03-26T13:15:35.847Z,10.50
2019-03-26T13:18:04.419Z,10.60
2019-03-26T13:20:32.887Z,10.60
2019-03-26T13:23:01.351Z,10.60
2019-03-26T13:25:30.009Z,10.50
2019-03-26T13:27:58.543Z,10.40
2019-03-26T13:30:27.073Z,10.30
2019-03-26T13:32:57.266Z,10.30
2019-03-26T13:35:25.748Z,10.30
2019-03-26T13:37:54.300Z,10.30
2019-03-26T13:40:27.377Z,10.30
2019-03-26T13:42:53.115Z,10.40
2019-03-26T13:45:21.584Z,10.40
2019-03-26T13:47:50.173Z,10.30
2019-03-26T13:50:19.272Z,10.40
2019-03-26T13:52:47.732Z,10.30
2019-03-26T13:55:16.278Z,10.30
2019-03-26T13:57:44.760Z,10.20
2019-03-26T14:00:14.257Z,10.10
2019-03-26T14:02:42.735Z,10.10
2019-03-26T14:05:23.103Z,10.10
2019-03-26T14:07:51.732Z,10.00
2019-03-26T14:10:20.335Z,10.00
2019-03-26T14:12:48.869Z,10.00
2019-03-26T14:15:17.524Z,10.10
2019-03-26T14:17:46.154Z,10.10
2019-03-26T14:20:15.948Z,10.20
2019-03-26T14:22:44.616Z,10.30
2019-03-26T14:25:13.312Z,10.40
2019-03-26T14:27:41.909Z,10.40
2019-03-26T14:30:12.420Z,10.60
2019-03-26T14:32:40.913Z,10.80
2019-03-26T14:35:09.543Z,11.40
2019-03-26T14:37:50.632Z,11.50
2019-03-26T14:40:08.946Z,11.40
2019-03-26T14:42:37.480Z,11.20
2019-03-26T14:45:08.155Z,11.10
2019-03-26T14:47:36.623Z,11.00
2019-03-26T14:50:06.724Z,11.00
2019-03-26T14:52:35.211Z,10.90
2019-03-26T14:55:04.920Z,10.80
2019-03-26T14:57:33.468Z,10.80
2019-03-26T15:00:02.089Z,10.80
2019-03-26T15:02:30.572Z,10.90
2019-03-26T15:04:59.028Z,11.00
2019-03-26T15:07:27.508Z,11.00
2019-03-26T15:09:55.967Z,11.00
2019-03-26T15:12:24.423Z,11.10
2019-03-26T15:14:52.916Z,11.10
2019-03-26T15:17:21.409Z,11.10
2019-03-26T15:19:49.977Z,11.10
2019-03-26T15:22:18.454Z,11.20
2019-03-26T15:24:46.936Z,11.20
2019-03-26T15:27:15.396Z,11.30
2019-03-26T15:29:43.929Z,11.20
2019-03-26T15:32:12.452Z,11.20
2019-03-26T15:34:40.909Z,11.00
2019-03-26T15:37:09.465Z,11.00
2019-03-26T15:39:37.963Z,11.00
2019-03-26T15:42:06.432Z,10.90
2019-03-26T15:44:54.256Z,11.00
2019-03-26T15:47:22.724Z,10.90
2019-03-26T15:49:51.183Z,10.90
2019-03-26T15:52:19.688Z,10.80
2019-03-26T15:54:48.265Z,10.80
2019-03-26T15:57:17.449Z,10.80
2019-03-26T15:59:45.924Z,10.70
2019-03-26T16:02:14.390Z,10.70
2019-03-26T16:04:45.937Z,10.70
2019-03-26T16:07:18.051Z,10.70
2019-03-26T16:09:49.870Z,10.70
2019-03-26T16:12:21.202Z,10.70
2019-03-26T16:14:52.902Z,10.60
2019-03-26T16:17:24.709Z,10.60
2019-03-26T16:19:55.602Z,10.50
2019-03-26T16:22:27.333Z,10.50
2019-03-26T16:24:58.536Z,10.50
2019-03-26T16:27:29.861Z,10.50
2019-03-26T16:30:01.643Z,10.50
2019-03-26T16:32:32.990Z,10.50
2019-03-26T16:35:04.650Z,10.50
2019-03-26T16:37:36.696Z,10.40
2019-03-26T16:40:09.240Z,10.40
2019-03-26T16:42:41.278Z,10.40
2019-03-26T16:45:12.727Z,10.40
2019-03-26T16:47:44.321Z,10.30
2019-03-26T16:50:15.783Z,10.30
2019-03-26T16:52:47.579Z,10.30
2019-03-26T16:55:19.203Z,10.30
2019-03-26T16:57:49.740Z,10.30
2019-03-26T17:00:23.139Z,10.30
2019-03-26T17:02:55.431Z,10.30
2019-03-26T17:05:27.111Z,10.30
2019-03-26T17:07:58.244Z,10.20
2019-03-26T17:10:29.848Z,10.20
2019-03-26T17:13:00.213Z,10.20
2019-03-26T17:15:31.667Z,10.20
2019-03-26T17:18:03.787Z,10.30
2019-03-26T17:20:35.688Z,10.20
2019-03-26T17:23:05.532Z,10.20
2019-03-26T17:25:36.809Z,10.20
2019-03-26T17:28:06.854Z,10.20
2019-03-26T17:30:38.811Z,10.10
2019-03-26T17:33:10.602Z,10.10
2019-03-26T17:35:41.725Z,10.10
2019-03-26T17:38:13.070Z,10.10
2019-03-26T17:40:44.734Z,10.10
2019-03-26T17:43:15.921Z,10.00
2019-03-26T17:45:47.637Z,10.00
2019-03-26T17:48:19.542Z,10.00
2019-03-26T17:50:52.613Z,10.00
2019-03-26T17:53:24.531Z,10.00
2019-03-26T17:55:55.863Z,10.00
2019-03-26T17:58:27.249Z,10.00
2019-03-26T18:00:58.456Z,10.10
2019-03-26T18:03:29.586Z,10.00
2019-03-26T18:05:59.508Z,10.10
2019-03-26T18:08:30.971Z,10.10
2019-03-26T18:11:01.772Z,10.10
2019-03-26T18:13:33.205Z,10.10
2019-03-26T18:16:05.448Z,10.10
2019-03-26T18:18:37.342Z,10.10
2019-03-26T18:21:08.585Z,10.10
2019-03-26T18:23:43.009Z,10.10
2019-03-26T18:26:14.297Z,10.10
2019-03-26T18:28:45.789Z,10.10
2019-03-26T18:31:17.266Z,10.10
2019-03-26T18:33:49.029Z,10.10
2019-03-26T18:36:21.990Z,10.10
2019-03-26T18:38:53.394Z,10.00
2019-03-26T18:41:24.478Z,10.00
2019-03-26T18:43:56.147Z,9.90
2019-03-26T18:46:28.220Z,9.90
2019-03-26T18:48:59.870Z,10.00
2019-03-26T18:51:32.300Z,9.90
2019-03-26T18:54:04.105Z,9.90
2019-03-26T18:56:35.293Z,9.90
2019-03-26T18:59:07.550Z,9.80
2019-03-26T19:01:39.212Z,9.80
2019-03-26T19:04:10.709Z,9.80
2019-03-26T19:06:42.312Z,9.80
2019-03-26T19:09:13.829Z,9.70
2019-03-26T19:11:45.796Z,9.70
2019-03-26T19:14:18.259Z,9.70
2019-03-26T19:16:49.962Z,9.70
2019-03-26T19:19:21.314Z,9.60
2019-03-26T19:21:52.866Z,9.60
2019-03-26T19:24:24.542Z,9.60
2019-03-26T19:26:55.765Z,9.60
2019-03-26T19:29:28.008Z,9.60
2019-03-26T19:31:59.503Z,9.60
2019-03-26T19:34:33.634Z,9.60
2019-03-26T19:37:04.877Z,9.60
2019-03-26T19:39:36.905Z,9.50
2019-03-26T19:42:09.261Z,9.50
2019-03-26T19:44:42.039Z,9.50
2019-03-26T19:47:14.576Z,9.50
2019-03-26T19:49:47.051Z,9.40
2019-03-26T19:52:18.553Z,9.50
2019-03-26T19:54:51.088Z,9.50
2019-03-26T19:57:23.043Z,9.40
2019-03-26T19:59:54.708Z,9.40
2019-03-26T20:02:26.648Z,9.40
2019-03-26T20:04:57.509Z,9.50
2019-03-26T20:07:29.133Z,9.50
2019-03-26T20:10:00.996Z,9.50
2019-03-26T20:12:32.162Z,9.50
2019-03-26T20:15:23.136Z,9.40
2019-03-26T20:17:54.609Z,9.40
2019-03-26T20:20:26.282Z,9.30
2019-03-26T20:22:58.611Z,9.40
2019-03-26T20:25:30.285Z,9.30
2019-03-26T20:28:01.404Z,9.20
2019-03-26T20:30:33.165Z,9.20
2019-03-26T20:33:05.030Z,9.20
2019-03-26T20:35:37.774Z,9.20
2019-03-26T20:38:09.002Z,9.10
2019-03-26T20:40:40.864Z,9.10
2019-03-26T20:43:11.337Z,9.10
2019-03-26T20:45:43.533Z,9.10
2019-03-26T20:48:16.406Z,9.10
2019-03-26T20:50:50.846Z,9.10
2019-03-26T20:53:22.152Z,9.10
2019-03-26T20:55:54.868Z,9.10
2019-03-26T20:58:27.274Z,9.10
2019-03-26T21:00:58.145Z,9.10
2019-03-26T21:03:29.591Z,9.10
2019-03-26T21:06:01.698Z,9.00
2019-03-26T21:08:33.169Z,9.00
2019-03-26T21:11:04.585Z,9.00
2019-03-26T21:13:49.977Z,9.00
2019-03-26T21:16:09.343Z,9.00
2019-03-26T21:18:40.768Z,9.00
2019-03-26T21:21:13.490Z,8.90
2019-03-26T21:23:44.613Z,8.90
2019-03-26T21:26:16.908Z,9.00
2019-03-26T21:28:48.319Z,8.90
2019-03-26T21:31:19.635Z,9.00
2019-03-26T21:33:51.117Z,9.00
2019-03-26T21:36:22.963Z,9.00
2019-03-26T21:38:54.440Z,9.00
2019-03-26T21:41:26.030Z,9.00
2019-03-26T21:44:04.228Z,8.90
2019-03-26T21:46:31.302Z,8.90
2019-03-26T21:49:02.152Z,8.80
2019-03-26T21:51:33.406Z,8.80
2019-03-26T21:54:05.270Z,8.80
2019-03-26T21:56:36.853Z,8.80
2019-03-26T21:59:08.546Z,8.80
2019-03-26T22:01:37.090Z,8.80
2019-03-26T22:04:05.712Z,8.80
2019-03-26T22:06:34.171Z,8.80
2019-03-26T22:09:05.398Z,8.70
2019-03-26T22:11:34.004Z,8.70
2019-03-26T22:14:02.561Z,8.80
2019-03-26T22:16:31.076Z,8.70
2019-03-26T22:18:59.573Z,8.80
2019-03-26T22:21:28.080Z,8.80
2019-03-26T22:23:56.533Z,8.70
2019-03-26T22:26:25.001Z,8.70
2019-03-26T22:28:53.495Z,8.70
2019-03-26T22:31:21.964Z,8.70
2019-03-26T22:33:50.445Z,8.70
2019-03-26T22:36:19.065Z,8.60
2019-03-26T22:38:47.653Z,8.60
2019-03-26T22:41:16.107Z,8.60
2019-03-26T22:43:44.615Z,8.60
2019-03-26T22:46:13.176Z,8.60
2019-03-26T22:48:41.708Z,8.50
2019-03-26T22:51:10.217Z,8.50
2019-03-26T22:53:38.697Z,8.50
2019-03-26T22:56:07.187Z,8.50
2019-03-26T22:58:35.728Z,8.50
2019-03-26T23:01:04.994Z,8.40
2019-03-26T23:03:33.528Z,8.40
2019-03-26T23:06:01.988Z,8.30
2019-03-26T23:08:30.463Z,8.30
2019-03-26T23:10:58.947Z,8.30
2019-03-26T23:13:27.416Z,8.20
2019-03-26T23:15:56.011Z,8.20
2019-03-26T23:18:24.514Z,8.20
2019-03-26T23:20:52.992Z,8.20
2019-03-26T23:23:21.464Z,8.20
2019-03-26T23:25:49.943Z,8.10
2019-03-26T23:28:18.412Z,8.10
2019-03-26T23:30:46.951Z,8.10
2019-03-26T23:33:15.443Z,8.10
2019-03-26T23:35:43.895Z,8.00
2019-03-26T23:38:12.380Z,8.00
2019-03-26T23:40:40.893Z,8.00
2019-03-26T23:43:09.344Z,8.00
2019-03-26T23:45:37.808Z,7.90
2019-03-26T23:48:06.365Z,8.00
2019-03-26T23:50:35.069Z,7.90
2019-03-26T23:53:03.639Z,7.80
2019-03-26T23:55:32.125Z,7.80
2019-03-26T23:58:00.716Z,7.70
